Time;durP1;ratioP1;P1;durP2;ratioP2;P2;SDS_P1;SDS_P2;PMS_P1;PMS_P2;Temp;Humidity;BMP_temperature;BMP_pressure;BME280_temperature;BME280_humidity;BME280_pressure;Samples;Min_cycle;Max_cycle;Signal;HPM_P1;HPM_P2
2022/09/18 00:01:12;;;;;;;7.40;4.80;;;;;;;9.07;99.36;96744.73;106286;1281;22705;-91
2022/09/18 00:03:41;;;;;;;7.70;5.20;;;;;;;9.04;99.35;96749.77;106489;1281;22564;-90
2022/09/18 00:06:12;;;;;;;11.30;5.50;;;;;;;9.03;99.57;96751.02;106578;1281;22865;-90
2022/09/18 00:08:42;;;;;;;11.70;6.50;;;;;;;9.02;99.61;96746.29;106451;1281;22486;-90
2022/09/18 00:11:13;;;;;;;12.90;7.30;;;;;;;8.98;99.84;96747.58;106237;1281;24282;-89
2022/09/18 00:13:42;;;;;;;12.50;8.00;;;;;;;8.96;99.81;96748.85;106146;1281;22711;-89
2022/09/18 00:20:24;;;;;;;13.50;9.40;;;;;;;8.95;99.87;96743.23;106231;1281;22711;-90
2022/09/18 00:23:47;;;;;;;15.90;11.60;;;;;;;8.94;99.88;96745.02;106181;1281;24139;-89
2022/09/18 00:26:17;;;;;;;17.00;12.10;;;;;;;8.87;100.00;96742.72;106475;1282;22583;-91
2022/09/18 00:28:45;;;;;;;13.00;11.00;;;;;;;8.83;100.00;96747.52;106257;1281;22695;-92
2022/09/18 00:31:17;;;;;;;13.50;10.80;;;;;;;8.81;100.00;96745.64;106452;1281;24222;-90
2022/09/18 00:33:45;;;;;;;16.00;11.10;;;;;;;8.77;100.00;96743.77;105938;1281;22683;-92
2022/09/18 00:36:17;;;;;;;16.60;10.60;;;;;;;8.73;100.00;96742.36;105860;1283;24236;-89
2022/09/18 00:38:46;;;;;;;15.90;11.60;;;;;;;8.71;100.00;96745.42;106066;1281;23979;-90
2022/09/18 00:41:23;;;;;;;15.50;11.50;;;;;;;8.68;100.00;96744.31;106190;1281;25372;-90
2022/09/18 00:43:55;;;;;;;13.60;9.90;;;;;;;8.62;100.00;96744.89;106053;1281;24368;-90
2022/09/18 00:46:23;;;;;;;14.20;11.00;;;;;;;8.60;100.00;96748.84;106034;1281;22559;-88
2022/09/18 00:48:56;;;;;;;12.50;10.70;;;;;;;8.60;100.00;96747.92;105918;1281;22769;-87
2022/09/18 00:51:25;;;;;;;14.70;11.20;;;;;;;8.60;100.00;96746.95;106553;1281;22638;-83
2022/09/18 00:54:09;;;;;;;12.70;9.80;;;;;;;8.59;100.00;96745.82;108566;1281;22643;-88
2022/09/18 00:56:38;;;;;;;16.50;10.10;;;;;;;8.56;100.00;96742.90;108265;1279;22620;-86
2022/09/18 00:59:09;;;;;;;14.00;10.00;;;;;;;8.56;100.00;96745.52;107216;1281;25435;-86
2022/09/18 01:01:37;;;;;;;15.60;10.10;;;;;;;8.56;100.00;96743.16;105982;1281;22677;-87
2022/09/18 01:04:10;;;;;;;15.20;9.60;;;;;;;8.53;100.00;96744.48;105795;1281;24240;-90
2022/09/18 01:07:05;;;;;;;10.40;7.70;;;;;;;8.50;100.00;96743.02;106057;1281;24417;-90
2022/09/18 01:09:48;;;;;;;13.90;9.30;;;;;;;8.50;100.00;96739.64;105957;1281;22761;-89
2022/09/18 01:12:32;;;;;;;12.10;9.00;;;;;;;8.45;100.00;96741.42;105894;1281;24357;-86
2022/09/18 01:15:08;;;;;;;12.80;8.40;;;;;;;8.43;100.00;96733.70;105851;1281;24437;-90
2022/09/18 01:17:56;;;;;;;12.20;8.80;;;;;;;8.41;100.00;96741.21;106118;1281;22538;-91
2022/09/18 01:20:33;;;;;;;14.40;9.20;;;;;;;8.40;100.00;96736.44;106107;1281;22570;-90
2022/09/18 01:23:26;;;;;;;15.70;8.60;;;;;;;8.35;100.00;96739.77;105791;1281;22625;-90
2022/09/18 01:25:54;;;;;;;13.40;8.40;;;;;;;8.33;100.00;96743.27;105781;1283;22628;-87
2022/09/18 01:28:41;;;;;;;10.30;7.00;;;;;;;8.30;100.00;96740.23;105788;1281;22571;-89
2022/09/18 01:31:19;;;;;;;13.20;7.40;;;;;;;8.28;100.00;96744.33;105827;1281;22549;-90
2022/09/18 01:33:56;;;;;;;10.90;7.00;;;;;;;8.24;100.00;96746.02;105647;1281;22829;-89
2022/09/18 01:36:31;;;;;;;13.30;7.20;;;;;;;8.23;100.00;96742.95;105672;1281;22557;-90
2022/09/18 01:39:29;;;;;;;15.60;7.50;;;;;;;8.21;100.00;96742.25;106090;1281;22549;-90
2022/09/18 01:41:59;;;;;;;12.20;6.90;;;;;;;8.20;100.00;96748.19;105801;1281;23388;-88
2022/09/18 01:44:31;;;;;;;14.80;7.90;;;;;;;8.19;100.00;96745.38;106059;1281;24045;-89
2022/09/18 01:47:08;;;;;;;14.30;7.70;;;;;;;8.19;100.00;96746.91;105862;1281;25367;-87
2022/09/18 01:49:42;;;;;;;11.00;7.20;;;;;;;8.17;100.00;96748.08;105701;1281;24362;-89
2022/09/18 01:52:41;;;;;;;11.40;7.90;;;;;;;8.16;100.00;96747.64;105706;1281;25401;-90
2022/09/18 01:55:17;;;;;;;11.30;7.20;;;;;;;8.14;100.00;96745.46;105723;1281;25262;-88
2022/09/18 01:58:00;;;;;;;10.70;7.10;;;;;;;8.15;100.00;96747.58;106098;1281;22733;-88
2022/09/18 02:00:30;;;;;;;13.90;7.70;;;;;;;8.12;100.00;96749.74;105613;1282;22883;-90
2022/09/18 02:03:08;;;;;;;9.60;7.00;;;;;;;8.11;100.00;96753.05;105624;1281;22552;-87
2022/09/18 02:05:41;;;;;;;12.30;7.80;;;;;;;8.11;100.00;96757.02;105814;1281;25513;-92
2022/09/18 02:08:28;;;;;;;14.20;8.70;;;;;;;8.08;100.00;96759.02;106060;1281;25397;-86
2022/09/18 02:11:05;;;;;;;12.10;7.90;;;;;;;8.04;100.00;96763.97;106062;1281;22592;-85
2022/09/18 02:13:59;;;;;;;14.10;7.30;;;;;;;8.02;100.00;96763.52;105518;1281;22577;-86
2022/09/18 02:16:52;;;;;;;12.40;7.30;;;;;;;8.04;100.00;96764.98;105830;1281;23413;-87
2022/09/18 02:19:29;;;;;;;14.10;7.50;;;;;;;8.03;100.00;96765.67;105680;1281;22542;-85
2022/09/18 02:22:02;;;;;;;15.00;7.00;;;;;;;8.02;100.00;96769.33;105666;1281;22591;-87
2022/09/18 02:24:34;;;;;;;13.30;7.70;;;;;;;8.02;100.00;96765.63;105774;1281;22726;-87
2022/09/18 02:27:06;;;;;;;11.70;7.10;;;;;;;8.02;100.00;96761.19;105881;1281;25363;-86
2022/09/18 02:29:35;;;;;;;11.90;7.40;;;;;;;8.00;100.00;96763.20;105931;1281;23094;-86
2022/09/18 02:32:03;;;;;;;12.30;7.00;;;;;;;7.99;100.00;96764.73;105569;1281;23836;-88
2022/09/18 02:34:32;;;;;;;14.10;7.80;;;;;;;7.99;100.00;96770.33;106084;1280;22703;-90
2022/09/18 02:37:31;;;;;;;13.70;7.50;;;;;;;7.96;100.00;96767.77;106210;1281;22784;-90
2022/09/18 02:40:18;;;;;;;8.60;6.30;;;;;;;7.93;100.00;96770.89;105716;1281;24096;-90
2022/09/18 02:42:49;;;;;;;12.10;6.70;;;;;;;7.92;100.00;96767.98;105943;1281;25322;-89
2022/09/18 02:45:41;;;;;;;11.70;6.60;;;;;;;7.90;100.00;96764.02;105584;1280;22570;-88
2022/09/18 02:48:40;;;;;;;11.70;6.20;;;;;;;7.89;100.00;96764.86;105844;1281;22708;-88
2022/09/18 02:51:24;;;;;;;13.30;7.30;;;;;;;7.85;100.00;96765.98;105866;1280;25383;-89
2022/09/18 02:54:16;;;;;;;;;;;;;;;7.84;100.00;96767.01;106002;1281;22661;-91
2022/09/18 02:56:51;;;;;;;12.80;7.00;;;;;;;7.82;100.00;96764.92;105611;1282;24213;-91
2022/09/18 02:59:57;;;;;;;10.90;7.40;;;;;;;7.81;100.00;96766.33;105740;1281;22708;-92
2022/09/18 03:02:27;;;;;;;13.30;6.30;;;;;;;7.76;100.00;96761.32;105042;1288;22721;-89
2022/09/18 03:04:56;;;;;;;8.70;5.70;;;;;;;7.71;100.00;96758.65;104885;1290;25467;-86
2022/09/18 03:07:34;;;;;;;15.80;6.60;;;;;;;7.70;100.00;96761.04;104863;1288;22550;-88
2022/09/18 03:10:03;;;;;;;12.80;6.10;;;;;;;7.70;100.00;96761.58;105025;1289;25277;-90
2022/09/18 03:12:31;;;;;;;9.40;6.00;;;;;;;7.68;100.00;96760.87;104954;1288;22797;-87
2022/09/18 03:14:59;;;;;;;11.80;5.90;;;;;;;7.67;100.00;96762.09;104876;1289;25371;-90
2022/09/18 03:17:27;;;;;;;10.30;6.40;;;;;;;7.65;100.00;96764.61;104930;1288;23316;-88
2022/09/18 03:19:55;;;;;;;10.00;6.30;;;;;;;7.62;100.00;96761.52;105805;1288;25370;-87
2022/09/18 03:22:23;;;;;;;13.90;6.70;;;;;;;7.59;100.00;96765.61;106107;1288;24427;-87
2022/09/18 03:24:50;;;;;;;11.30;7.10;;;;;;;7.60;100.00;96766.81;106469;1288;24471;-85
2022/09/18 03:27:18;;;;;;;13.20;7.90;;;;;;;7.59;100.00;96766.59;106488;1288;22523;-89
2022/09/18 03:29:46;;;;;;;16.00;7.60;;;;;;;7.59;100.00;96767.54;105028;1288;24279;-88
2022/09/18 03:32:16;;;;;;;12.70;7.70;;;;;;;7.61;100.00;96767.23;105141;1288;24418;-89
2022/09/18 03:34:47;;;;;;;12.30;7.40;;;;;;;7.60;100.00;96772.30;105242;1288;24313;-88
2022/09/18 03:37:16;;;;;;;11.90;8.00;;;;;;;7.61;100.00;96767.45;105820;1281;24003;-91
2022/09/18 03:39:45;;;;;;;15.50;9.10;;;;;;;7.59;100.00;96771.95;106081;1281;23524;-90
2022/09/18 03:42:13;;;;;;;15.90;10.80;;;;;;;7.55;100.00;96774.98;105651;1281;25402;-89
2022/09/18 03:44:41;;;;;;;14.10;9.70;;;;;;;7.49;100.00;96771.92;105544;1282;25238;-90
2022/09/18 03:47:25;;;;;;;16.70;10.40;;;;;;;7.46;100.00;96774.67;105725;1281;22658;-91
2022/09/18 03:49:53;;;;;;;21.50;12.20;;;;;;;7.42;100.00;96778.59;105745;1281;24804;-90
2022/09/18 03:52:22;;;;;;;17.10;11.50;;;;;;;7.38;100.00;96778.04;107324;1281;22566;-87
2022/09/18 03:54:55;;;;;;;14.30;11.30;;;;;;;7.36;100.00;96779.16;109001;1281;23062;-87
2022/09/18 03:57:58;;;;;;;13.90;10.40;;;;;;;7.34;100.00;96778.45;108936;1281;22530;-90
2022/09/18 04:01:05;;;;;;;16.40;8.90;;;;;;;7.28;100.00;96777.20;105943;1280;22563;-90
2022/09/18 04:03:39;;;;;;;14.10;8.00;;;;;;;7.26;100.00;96775.27;105527;1281;22628;-89
2022/09/18 04:06:36;;;;;;;12.80;6.90;;;;;;;7.24;100.00;96779.33;104955;1281;22769;-90
2022/09/18 04:09:25;;;;;;;11.40;6.90;;;;;;;7.21;100.00;96783.20;105700;1281;25468;-90
2022/09/18 04:11:53;;;;;;;12.00;7.00;;;;;;;7.19;100.00;96785.89;105626;1283;25336;-90
2022/09/18 04:14:21;;;;;;;12.10;7.20;;;;;;;7.18;100.00;96790.27;105569;1281;25326;-92
2022/09/18 04:16:56;;;;;;;;;;;;;;;7.15;100.00;96789.27;106229;1281;22518;-90
2022/09/18 04:19:24;;;;;;;11.90;7.10;;;;;;;7.11;100.00;96789.29;106417;1281;25235;-88
2022/09/18 04:21:52;;;;;;;13.90;7.10;;;;;;;7.09;100.00;96787.98;106205;1281;24327;-89
2022/09/18 04:24:21;;;;;;;15.40;6.80;;;;;;;7.06;100.00;96788.70;105942;1280;25559;-89
2022/09/18 04:26:49;;;;;;;12.20;6.90;;;;;;;7.06;100.00;96788.53;105848;1281;23947;-88
2022/09/18 04:29:19;;;;;;;11.80;7.00;;;;;;;7.06;100.00;96790.46;105768;1281;23945;-89
2022/09/18 04:31:49;;;;;;;10.90;7.10;;;;;;;7.06;100.00;96790.42;105855;1280;23982;-88
2022/09/18 04:34:17;;;;;;;13.00;6.40;;;;;;;7.05;100.00;96793.64;105521;1282;22603;-89
2022/09/18 04:36:45;;;;;;;11.60;7.80;;;;;;;7.05;100.00;96793.63;105490;1281;22715;-89
2022/09/18 04:39:13;;;;;;;12.20;8.50;;;;;;;7.05;100.00;96794.77;105463;1281;24107;-89
2022/09/18 04:41:44;;;;;;;12.70;8.20;;;;;;;7.04;100.00;96803.56;105546;1281;22700;-89
2022/09/18 04:44:13;;;;;;;13.30;9.20;;;;;;;7.03;100.00;96807.39;105603;1281;25467;-87
2022/09/18 04:46:43;;;;;;;19.20;9.80;;;;;;;7.02;100.00;96803.25;105864;1280;24293;-89
2022/09/18 04:49:11;;;;;;;14.00;8.00;;;;;;;7.04;100.00;96808.44;105930;1281;22556;-90
2022/09/18 04:51:39;;;;;;;12.80;7.80;;;;;;;7.06;100.00;96808.94;105926;1279;24258;-90
2022/09/18 04:54:08;;;;;;;13.70;8.60;;;;;;;7.10;100.00;96807.04;105890;1281;22724;-89
2022/09/18 04:56:37;;;;;;;13.80;9.30;;;;;;;7.12;100.00;96811.64;105888;1280;22655;-89
2022/09/18 04:59:05;;;;;;;11.80;8.70;;;;;;;7.12;100.00;96820.13;105788;1281;22689;-86
2022/09/18 05:01:34;;;;;;;10.50;7.50;;;;;;;7.11;100.00;96820.35;105733;1281;22615;-89
2022/09/18 05:04:07;;;;;;;12.40;8.10;;;;;;;7.11;100.00;96818.36;105853;1280;22593;-89
2022/09/18 05:07:11;;;;;;;10.40;7.80;;;;;;;7.12;100.00;96819.79;105570;1281;22569;-88
2022/09/18 05:09:39;;;;;;;11.20;7.40;;;;;;;7.16;100.00;96819.61;105805;1280;24343;-90
2022/09/18 05:12:08;;;;;;;14.70;8.90;;;;;;;7.21;100.00;96820.40;105864;1281;22643;-91
2022/09/18 05:14:37;;;;;;;15.30;9.70;;;;;;;7.22;100.00;96825.39;105865;1280;25415;-90
2022/09/18 05:17:07;;;;;;;12.60;9.50;;;;;;;7.23;100.00;96825.11;105844;1280;22649;-89
2022/09/18 05:19:42;;;;;;;12.50;9.00;;;;;;;7.24;100.00;96825.09;105623;1282;24288;-90
2022/09/18 05:22:14;;;;;;;13.00;9.60;;;;;;;7.24;100.00;96823.05;106143;1279;25372;-89
2022/09/18 05:24:46;;;;;;;13.10;8.40;;;;;;;7.24;100.00;96823.26;105868;1279;25310;-88
2022/09/18 05:27:14;;;;;;;14.80;8.20;;;;;;;7.22;100.00;96823.39;105497;1281;24282;-87
2022/09/18 05:29:43;;;;;;;11.50;7.90;;;;;;;7.24;100.00;96823.42;105547;1280;23691;-89
2022/09/18 05:32:17;;;;;;;12.80;9.50;;;;;;;7.28;100.00;96820.86;105477;1281;25733;-90
2022/09/18 05:34:48;;;;;;;14.30;8.70;;;;;;;7.26;100.00;96823.61;105973;1280;22753;-88
2022/09/18 05:37:17;;;;;;;13.40;9.60;;;;;;;7.27;100.00;96823.79;105585;1282;22697;-90
2022/09/18 05:39:47;;;;;;;14.20;8.40;;;;;;;7.27;100.00;96823.73;105931;1279;23315;-90
2022/09/18 05:42:16;;;;;;;11.00;8.40;;;;;;;7.29;100.00;96817.91;105900;1280;25359;-89
2022/09/18 05:44:44;;;;;;;14.50;8.80;;;;;;;7.31;100.00;96816.89;105561;1281;25472;-90
2022/09/18 05:47:16;;;;;;;12.90;10.40;;;;;;;7.31;100.00;96814.58;105901;1280;24586;-90
2022/09/18 05:49:44;;;;;;;14.40;10.40;;;;;;;7.29;100.00;96815.93;105970;1281;25313;-88
2022/09/18 05:52:12;;;;;;;14.60;10.80;;;;;;;7.30;100.00;96810.77;105949;1281;24285;-90
2022/09/18 05:54:40;;;;;;;13.70;10.90;;;;;;;7.31;100.00;96814.71;105883;1281;25250;-88
2022/09/18 05:57:09;;;;;;;14.60;10.40;;;;;;;7.33;100.00;96812.45;105888;1281;24062;-90
2022/09/18 05:59:36;;;;;;;17.20;9.50;;;;;;;7.35;100.00;96814.48;105969;1281;25238;-90
2022/09/18 06:02:05;;;;;;;11.40;8.60;;;;;;;7.34;100.00;96814.16;105929;1281;25196;-89
2022/09/18 06:04:53;;;;;;;12.70;8.80;;;;;;;7.38;100.00;96814.92;105783;1281;22557;-88
2022/09/18 06:07:21;;;;;;;12.90;9.10;;;;;;;7.40;100.00;96814.17;105883;1281;22660;-88
2022/09/18 06:09:50;;;;;;;12.40;9.10;;;;;;;7.45;100.00;96809.42;105513;1279;24254;-88
2022/09/18 06:12:18;;;;;;;14.80;9.20;;;;;;;7.52;100.00;96812.97;105861;1281;22665;-88
2022/09/18 06:14:46;;;;;;;14.10;10.10;;;;;;;7.62;100.00;96810.31;105482;1282;23635;-89
2022/09/18 06:17:16;;;;;;;11.90;9.10;;;;;;;7.63;100.00;96810.45;105524;1281;23981;-92
2022/09/18 06:19:44;;;;;;;13.10;8.70;;;;;;;7.64;100.00;96816.36;105957;1281;25502;-89
2022/09/18 06:22:13;;;;;;;13.50;9.10;;;;;;;7.66;100.00;96818.98;105505;1281;25354;-89
2022/09/18 06:24:42;;;;;;;9.90;7.60;;;;;;;7.70;100.00;96823.79;105555;1282;25361;-90
2022/09/18 06:27:14;;;;;;;10.10;7.50;;;;;;;7.73;100.00;96825.79;105555;1281;25396;-90
2022/09/18 06:29:42;;;;;;;11.10;8.10;;;;;;;7.81;100.00;96827.98;105545;1281;24285;-91
2022/09/18 06:32:14;;;;;;;13.30;7.90;;;;;;;7.85;100.00;96823.59;105548;1281;26578;-88
2022/09/18 06:34:41;;;;;;;12.40;7.30;;;;;;;7.91;100.00;96822.02;105831;1280;22609;-90
2022/09/18 06:37:12;;;;;;;9.90;7.90;;;;;;;7.99;100.00;96826.51;105856;1280;24340;-87
2022/09/18 06:39:44;;;;;;;8.70;7.40;;;;;;;8.08;100.00;96826.58;105389;1281;25311;-89
2022/09/18 06:42:33;;;;;;;9.50;7.80;;;;;;;8.06;99.79;96823.42;105948;1281;25347;-88
2022/09/18 06:45:14;;;;;;;10.80;8.10;;;;;;;8.12;99.95;96824.54;105714;1281;24231;-89
2022/09/18 06:47:44;;;;;;;10.90;7.80;;;;;;;8.23;99.49;96827.48;105945;1281;25251;-90
2022/09/18 06:50:12;;;;;;;12.20;7.50;;;;;;;8.35;99.22;96827.58;105554;1281;22724;-89
2022/09/18 06:52:40;;;;;;;10.40;8.20;;;;;;;8.42;99.16;96830.01;105895;1281;22601;-88
2022/09/18 06:55:09;;;;;;;10.00;7.20;;;;;;;8.50;99.30;96828.23;105791;1280;25354;-89
2022/09/18 06:57:38;;;;;;;8.90;7.00;;;;;;;8.57;99.11;96831.66;105531;1281;25354;-88
2022/09/18 07:00:08;;;;;;;10.20;6.80;;;;;;;8.66;99.23;96826.85;108438;1279;23415;-88
2022/09/18 07:02:38;;;;;;;10.80;6.50;;;;;;;8.70;97.99;96834.07;107230;1282;24299;-87
2022/09/18 07:05:26;;;;;;;7.20;6.10;;;;;;;8.66;96.89;96834.45;107261;1281;25199;-87
2022/09/18 07:07:57;;;;;;;9.30;5.80;;;;;;;8.59;95.86;96842.85;105755;1280;22705;-88
2022/09/18 07:10:27;;;;;;;7.00;5.60;;;;;;;8.51;96.01;96842.23;105499;1281;23348;-87
2022/09/18 07:13:00;;;;;;;11.10;7.10;;;;;;;8.49;96.56;96837.17;105767;1280;22662;-86
2022/09/18 07:15:29;;;;;;;9.00;6.50;;;;;;;8.50;96.23;96838.28;105412;1281;23198;-87
2022/09/18 07:17:59;;;;;;;10.10;6.60;;;;;;;8.48;96.17;96840.73;105464;1281;22583;-86
2022/09/18 07:20:28;;;;;;;10.90;6.20;;;;;;;8.48;96.08;96847.50;105523;1281;25309;-86
2022/09/18 07:22:59;;;;;;;11.00;7.20;;;;;;;8.43;96.25;96845.09;105982;1280;24078;-89
2022/09/18 07:25:38;;;;;;;10.00;7.10;;;;;;;8.41;96.32;96851.04;105930;1280;24222;-88
2022/09/18 07:28:10;;;;;;;12.30;7.00;;;;;;;8.34;96.06;96853.05;105988;1280;23417;-87
2022/09/18 07:30:44;;;;;;;9.80;7.20;;;;;;;8.33;96.62;96848.41;105912;1280;26513;-88
2022/09/18 07:33:12;;;;;;;12.10;7.70;;;;;;;8.37;96.38;96849.21;105546;1282;25674;-88
2022/09/18 07:35:44;;;;;;;12.70;7.30;;;;;;;8.37;96.45;96849.26;105903;1281;25314;-88
2022/09/18 07:38:12;;;;;;;10.70;7.60;;;;;;;8.39;96.14;96852.73;105968;1280;24490;-87
2022/09/18 07:41:01;;;;;;;11.40;7.60;;;;;;;8.42;96.00;96852.40;105871;1281;22689;-88
2022/09/18 07:43:31;;;;;;;8.30;6.10;;;;;;;8.47;96.54;96854.48;105864;1280;22930;-87
2022/09/18 07:46:01;;;;;;;10.50;7.00;;;;;;;8.54;96.39;96856.27;105471;1281;23853;-87
2022/09/18 07:48:32;;;;;;;9.60;6.20;;;;;;;8.59;96.39;96857.35;105909;1280;22573;-89
2022/09/18 07:51:15;;;;;;;8.50;6.00;;;;;;;8.69;97.19;96856.16;105905;1281;23995;-90
2022/09/18 07:53:47;;;;;;;9.80;6.00;;;;;;;8.84;96.99;96850.85;105687;1280;24123;-88
2022/09/18 07:56:21;;;;;;;8.00;6.20;;;;;;;8.96;96.31;96851.36;105851;1280;24300;-89
2022/09/18 07:58:50;;;;;;;7.40;6.50;;;;;;;9.01;95.85;96857.99;105559;1281;25949;-89
2022/09/18 08:01:25;;;;;;;7.00;5.30;;;;;;;8.99;95.67;96854.27;105975;1281;23502;-88
2022/09/18 08:03:55;;;;;;;7.90;5.70;;;;;;;9.01;95.39;96862.02;105779;1280;23943;-86
2022/09/18 08:06:35;;;;;;;10.70;6.00;;;;;;;9.05;95.76;96857.52;105911;1281;22603;-88
2022/09/18 08:09:26;;;;;;;6.90;5.60;;;;;;;9.07;94.65;96861.02;105797;1279;22583;-89
2022/09/18 08:11:54;;;;;;;10.90;6.40;;;;;;;9.06;94.00;96865.63;105484;1281;25239;-88
2022/09/18 08:14:40;;;;;;;9.50;5.90;;;;;;;9.06;94.45;96855.03;106034;1281;22866;-91
2022/09/18 08:17:44;;;;;;;8.50;6.20;;;;;;;9.25;94.86;96853.73;105275;1281;22715;-91
2022/09/18 08:20:24;;;;;;;7.20;5.80;;;;;;;9.45;93.72;96849.88;105952;1280;25328;-90
2022/09/18 08:22:54;;;;;;;8.80;5.90;;;;;;;9.59;93.17;96848.38;105972;1279;22770;-91
2022/09/18 08:25:26;;;;;;;5.20;3.90;;;;;;;9.74;93.61;96843.97;105803;1281;24338;-89
2022/09/18 08:28:00;;;;;;;6.40;4.10;;;;;;;9.83;91.47;96841.89;105651;1281;25334;-87
2022/09/18 08:30:35;;;;;;;5.90;4.70;;;;;;;9.79;90.50;96847.79;105880;1281;23473;-88
2022/09/18 08:33:08;;;;;;;6.40;4.90;;;;;;;9.79;90.84;96836.33;105881;1281;22605;-90
2022/09/18 08:35:37;;;;;;;6.10;4.50;;;;;;;9.82;90.16;96840.77;105585;1282;26324;-91
2022/09/18 08:38:18;;;;;;;6.70;4.50;;;;;;;9.80;89.53;96841.09;105824;1281;25255;-90
2022/09/18 08:41:26;;;;;;;5.80;4.60;;;;;;;9.72;88.80;96844.98;105579;1281;25418;-89
2022/09/18 08:44:16;;;;;;;6.80;4.20;;;;;;;9.62;88.61;96847.52;105852;1281;26614;-87
2022/09/18 08:46:59;;;;;;;7.00;4.10;;;;;;;9.49;89.20;96844.44;105986;1281;25349;-89
2022/09/18 08:49:32;;;;;;;5.10;3.90;;;;;;;9.34;90.09;96846.23;105893;1280;22561;-90
2022/09/18 08:52:17;;;;;;;6.30;4.00;;;;;;;9.22;90.03;96849.15;105880;1279;22691;-87
2022/09/18 08:55:04;;;;;;;5.80;3.80;;;;;;;8.99;90.78;96851.23;105732;1281;22567;-86
2022/09/18 08:57:59;;;;;;;6.80;4.60;;;;;;;8.94;92.08;96856.31;105454;1279;23379;-86
2022/09/18 09:00:51;;;;;;;4.90;3.80;;;;;;;8.90;93.17;96853.83;106039;1280;25308;-86
2022/09/18 09:04:29;;;;;;;4.70;4.00;;;;;;;8.87;93.31;96845.80;105879;1279;22662;-88
2022/09/18 09:07:06;;;;;;;4.70;3.90;;;;;;;8.96;93.81;96841.30;106012;1281;24256;-88
2022/09/18 09:10:12;;;;;;;6.30;4.30;;;;;;;9.12;93.44;96836.48;106828;1279;25498;-89
2022/09/18 09:12:52;;;;;;;5.10;4.40;;;;;;;9.22;92.64;96842.15;107890;1279;22583;-88
2022/09/18 09:15:53;;;;;;;4.80;3.80;;;;;;;9.26;92.87;96830.45;107182;1279;22714;-87
2022/09/18 09:18:28;;;;;;;7.60;5.00;;;;;;;9.34;92.63;96840.83;105956;1279;27182;-89
2022/09/18 09:21:17;;;;;;;4.20;3.60;;;;;;;9.40;92.88;96836.12;106066;1279;23354;-89
2022/09/18 09:24:12;;;;;;;5.30;3.50;;;;;;;9.43;92.16;96835.33;105979;1279;22605;-87
2022/09/18 09:27:17;;;;;;;7.50;4.60;;;;;;;9.35;91.89;96832.45;105913;1279;25360;-89
2022/09/18 09:30:17;;;;;;;5.80;4.00;;;;;;;9.43;92.22;96828.48;105933;1279;22600;-89
2022/09/18 09:33:44;;;;;;;4.90;4.10;;;;;;;9.76;92.82;96833.58;105350;1281;25302;-87
2022/09/18 09:36:23;;;;;;;5.10;3.90;;;;;;;10.00;91.66;96830.09;105790;1280;23287;-89
2022/09/18 09:39:17;;;;;;;5.80;4.30;;;;;;;10.07;91.42;96829.34;105521;1279;24211;-89
2022/09/18 09:41:56;;;;;;;5.70;3.70;;;;;;;10.09;91.09;96839.46;105917;1280;25573;-89
2022/09/18 09:44:42;;;;;;;7.90;4.00;;;;;;;10.06;90.48;96841.02;105940;1279;24257;-89
2022/09/18 09:47:22;;;;;;;5.30;3.20;;;;;;;10.03;90.27;96845.05;105747;1281;25472;-88
2022/09/18 09:50:14;;;;;;;5.90;4.20;;;;;;;9.86;89.93;96847.02;105881;1279;22703;-88
2022/09/18 09:52:48;;;;;;;4.90;3.50;;;;;;;9.74;90.42;96848.88;106019;1279;22719;-89
2022/09/18 09:55:25;;;;;;;4.90;4.00;;;;;;;9.66;90.64;96851.99;104942;1279;1454211;-89
2022/09/18 09:58:11;;;;;;;5.00;4.10;;;;;;;9.68;90.98;96855.95;105906;1280;26619;-89
2022/09/18 10:00:56;;;;;;;5.40;4.30;;;;;;;9.85;91.68;96852.44;105819;1281;22883;-89
2022/09/18 10:03:59;;;;;;;5.90;5.00;;;;;;;10.06;91.75;96852.33;105825;1281;24014;-89
2022/09/18 10:06:36;;;;;;;4.80;3.50;;;;;;;10.25;90.83;96846.41;105804;1280;23747;-89
2022/09/18 10:09:40;;;;;;;4.80;3.90;;;;;;;10.32;90.52;96839.90;105821;1281;25251;-84
2022/09/18 10:12:36;;;;;;;4.20;3.50;;;;;;;10.41;90.23;96842.17;106868;1280;22492;-82
2022/09/18 10:15:22;;;;;;;4.80;3.80;;;;;;;10.36;89.70;96840.80;105582;1281;22735;-81
2022/09/18 10:17:56;;;;;;;5.50;3.90;;;;;;;10.38;89.09;96842.28;105526;1281;25538;-83
2022/09/18 10:20:29;;;;;;;4.90;4.10;;;;;;;10.63;88.81;96842.89;105510;1280;22538;-84
2022/09/18 10:23:05;;;;;;;5.20;3.90;;;;;;;10.91;87.83;96840.54;105594;1280;24336;-83
2022/09/18 10:25:56;;;;;;;9.50;7.10;;;;;;;11.17;86.62;96837.33;105975;1279;25455;-87
2022/09/18 10:28:31;;;;;;;5.70;4.20;;;;;;;11.14;85.36;96831.45;106013;1281;25364;-92
2022/09/18 10:31:05;;;;;;;4.80;3.90;;;;;;;11.01;84.37;96832.36;106628;1282;22555;-90
2022/09/18 10:33:47;;;;;;;6.50;4.50;;;;;;;10.86;83.90;96836.41;106540;1280;25952;-91
2022/09/18 10:36:20;;;;;;;5.30;3.90;;;;;;;10.75;85.16;96847.54;106124;1282;23366;-90
2022/09/18 10:38:50;;;;;;;4.70;3.70;;;;;;;10.70;85.43;96855.48;106526;1279;25360;-90
2022/09/18 10:41:38;;;;;;;6.50;3.50;;;;;;;10.58;85.51;96859.02;106134;1281;22538;-93
2022/09/18 10:44:19;;;;;;;5.50;4.20;;;;;;;10.42;85.99;96859.63;106659;1279;25371;-88
2022/09/18 10:46:59;;;;;;;4.90;4.20;;;;;;;10.27;86.75;96857.89;106759;1280;22562;-91
2022/09/18 10:49:39;;;;;;;7.20;4.30;;;;;;;10.20;87.45;96861.06;106343;1281;22554;-94
2022/09/18 10:52:48;;;;;;;6.00;5.40;;;;;;;10.04;88.37;96869.40;106433;1281;22523;-90
2022/09/18 10:55:28;;;;;;;8.40;6.50;;;;;;;9.90;89.25;96886.23;105729;1288;25357;-92
2022/09/18 10:58:05;;;;;;;6.20;5.60;;;;;;;9.81;90.33;96891.56;105323;1287;24118;-90
2022/09/18 11:00:38;;;;;;;3.80;3.10;;;;;;;9.64;90.52;96908.09;105026;1288;22528;-90
2022/09/18 11:03:13;;;;;;;;;;;;;;;9.27;89.95;96897.14;104956;1287;23972;-91
2022/09/18 11:05:55;;;;;;;4.00;3.40;;;;;;;9.02;90.01;96901.91;105227;1287;22551;-90
2022/09/18 11:08:34;;;;;;;4.00;3.60;;;;;;;8.92;90.98;96900.75;105158;1288;22563;-88
2022/09/18 11:11:06;;;;;;;4.00;3.60;;;;;;;8.89;91.27;96897.83;105194;1287;25381;-91
2022/09/18 11:13:47;;;;;;;4.60;4.00;;;;;;;8.98;91.57;96898.39;105365;1287;23762;-88
2022/09/18 11:16:28;;;;;;;4.70;3.40;;;;;;;9.13;91.97;96899.41;105009;1287;22538;-91
2022/09/18 11:19:11;;;;;;;6.90;4.20;;;;;;;9.17;92.44;96900.45;105090;1287;24489;-87
2022/09/18 11:21:51;;;;;;;5.30;4.80;;;;;;;9.24;92.64;96895.75;105139;1288;25354;-87
2022/09/18 11:24:30;;;;;;;6.60;5.40;;;;;;;9.36;93.05;96898.23;105207;1288;22713;-86
2022/09/18 11:27:21;;;;;;;6.30;5.70;;;;;;;9.63;92.89;96897.46;105121;1287;22562;-85
2022/09/18 11:30:12;;;;;;;7.00;6.30;;;;;;;9.89;92.61;96897.24;105065;1287;25368;-87
2022/09/18 11:32:45;;;;;;;6.20;5.60;;;;;;;9.93;92.22;96886.54;105360;1282;22633;-87
2022/09/18 11:35:17;;;;;;;7.00;5.70;;;;;;;10.00;92.62;96889.14;105673;1282;24277;-88
2022/09/18 11:38:07;;;;;;;4.30;3.90;;;;;;;10.05;93.07;96890.95;105704;1280;24386;-89
2022/09/18 11:40:48;;;;;;;6.30;4.70;;;;;;;10.13;92.92;96885.46;105909;1280;24270;-86
2022/09/18 11:43:36;;;;;;;6.60;5.90;;;;;;;10.18;93.00;96882.04;105646;1279;23642;-91
2022/09/18 11:46:38;;;;;;;6.70;5.70;;;;;;;10.33;93.31;96884.71;106352;1281;22833;-91
2022/09/18 11:49:18;;;;;;;6.10;5.30;;;;;;;10.52;93.32;96877.16;106272;1279;22738;-92
2022/09/18 11:52:04;;;;;;;5.70;4.70;;;;;;;10.76;93.44;96875.90;106836;1279;23616;-92
2022/09/18 11:55:15;;;;;;;5.90;5.30;;;;;;;10.89;92.20;96875.20;106475;1281;25358;-91
2022/09/18 11:57:55;;;;;;;4.30;3.60;;;;;;;10.94;90.12;96880.82;105863;1279;22621;-89
2022/09/18 12:00:30;;;;;;;4.00;3.60;;;;;;;10.85;88.92;96888.27;105873;1279;24121;-90
2022/09/18 12:03:25;;;;;;;4.10;3.70;;;;;;;10.93;88.50;96882.11;105498;1281;22622;-88
2022/09/18 12:06:27;;;;;;;3.90;3.20;;;;;;;11.08;89.04;96878.52;105527;1281;23850;-88
2022/09/18 12:09:04;;;;;;;5.00;3.60;;;;;;;11.17;89.36;96878.64;104808;1288;22597;-88
2022/09/18 12:11:43;;;;;;;4.80;3.60;;;;;;;11.10;88.53;96879.54;104841;1288;22722;-88
2022/09/18 12:14:36;;;;;;;4.20;3.80;;;;;;;11.03;87.61;96875.70;104844;1287;25658;-89
2022/09/18 12:17:34;;;;;;;7.60;3.90;;;;;;;10.94;88.17;96879.36;104819;1288;23518;-83